CJH8 weather

Leask Airport
Leask, Saskatchewan, Canada

Public forecast

Using degrees Celsius for public forecast. Weather courtesy of forecast.io.

METAR (pilot weather report)

Closest report is Prince Albert Glass Field, 40.6 nm (75.2 km) ENE. Retrieved 2019/04/24 02:00 UTC (18 minutes ago):

CYPA 240200Z 29009KT 15SM FEW072 FEW100 FEW250 15/M03 A2964 RMK CU1AC1CI1 CU TR AC TR CI TR SLP047 DENSITY ALT 2100FT

TAF (pilot weather forecast)

Closest forecast is Prince Albert Glass Field, 40.6 nm (75.2 km) ENE. Retrieved 2019/04/24 01:39 UTC (39 minutes ago):

TAF CYPA 240038Z 2401/2413 32015KT P6SM FEW090 FEW250 FM240400 29010KT P6SM SCT060 FM240800 31010KT P6SM BKN060 RMK NXT FCST BY 240700Z